<?xml version="1.0" encoding="UTF-8" standalone="no" ?>
<gpx xmlns="http://www.topografix.com/GPX/1/1" xmlns:xsi="http://www.w3.org/2001/XMLSchema-instance" xsi:schemaLocation="http://www.topografix.com/GPX/1/1 http://www.topografix.com/GPX/1/1/gpx.xsd" version="1.1" creator="VisuGPX - https://www.visugpx.com">
  <metadata>
    <name>Sentier de Mela</name>
    <desc><![CDATA[Traces du 23/02/2025 en descente et montée]]></desc>
  </metadata>
  <trk>
    <name><![CDATA[Sentier de Mela]]></name>
    <desc><![CDATA[comment ...]]></desc>
    <extensions>
      <line xmlns="http://www.topografix.com/GPX/gpx_style/0/2">
        <color>ff0000</color>
        <opacity>1</opacity>
        <width>5</width>
          <extensions>
            <sens>1</sens>
          </extensions>
      </line>
    </extensions>
    <trkseg>
      <trkpt lat="41.75333" lon="9.27905">
        <ele>274</ele>
        <time>2025-02-23T09:33:46Z</time>
      </trkpt>
      <trkpt lat="41.75335" lon="9.279">
        <ele>278</ele>
        <time>2025-02-23T09:35:16Z</time>
      </trkpt>
      <trkpt lat="41.75334" lon="9.27895">
        <ele>278</ele>
        <time>2025-02-23T09:35:20Z</time>
      </trkpt>
      <trkpt lat="41.75334" lon="9.27888">
        <ele>281</ele>
        <time>2025-02-23T09:35:26Z</time>
      </trkpt>
      <trkpt lat="41.75334" lon="9.27881">
        <ele>281</ele>
        <time>2025-02-23T09:35:32Z</time>
      </trkpt>
      <trkpt lat="41.75332" lon="9.27872">
        <ele>282</ele>
        <time>2025-02-23T09:35:52Z</time>
      </trkpt>
      <trkpt lat="41.75333" lon="9.27865">
        <ele>282</ele>
        <time>2025-02-23T09:35:58Z</time>
      </trkpt>
      <trkpt lat="41.75335" lon="9.27857">
        <ele>278.9</ele>
        <time>2025-02-23T09:36:06Z</time>
      </trkpt>
      <trkpt lat="41.75335" lon="9.2785">
        <ele>279.6</ele>
        <time>2025-02-23T09:36:16Z</time>
      </trkpt>
      <trkpt lat="41.75333" lon="9.27841">
        <ele>279.9</ele>
        <time>2025-02-23T09:36:24Z</time>
      </trkpt>
      <trkpt lat="41.75332" lon="9.27834">
        <ele>280.4</ele>
        <time>2025-02-23T09:36:34Z</time>
      </trkpt>
      <trkpt lat="41.7533" lon="9.27826">
        <ele>281.4</ele>
        <time>2025-02-23T09:36:42Z</time>
      </trkpt>
      <trkpt lat="41.7533" lon="9.27815">
        <ele>283</ele>
        <time>2025-02-23T09:37:00Z</time>
      </trkpt>
      <trkpt lat="41.75329" lon="9.27806">
        <ele>283</ele>
        <time>2025-02-23T09:37:40Z</time>
      </trkpt>
      <trkpt lat="41.75331" lon="9.27787">
        <ele>283</ele>
        <time>2025-02-23T09:38:02Z</time>
      </trkpt>
      <trkpt lat="41.75338" lon="9.27784">
        <ele>283</ele>
        <time>2025-02-23T09:38:12Z</time>
      </trkpt>
      <trkpt lat="41.75343" lon="9.27777">
        <ele>292.1</ele>
        <time>2025-02-23T09:38:22Z</time>
      </trkpt>
      <trkpt lat="41.75348" lon="9.27768">
        <ele>291.7</ele>
        <time>2025-02-23T09:38:52Z</time>
      </trkpt>
      <trkpt lat="41.75355" lon="9.27764">
        <ele>283</ele>
        <time>2025-02-23T09:39:16Z</time>
      </trkpt>
      <trkpt lat="41.75358" lon="9.27761">
        <ele>283</ele>
        <time>2025-02-23T09:39:22Z</time>
      </trkpt>
      <trkpt lat="41.75361" lon="9.27755">
        <ele>293.5</ele>
        <time>2025-02-23T09:39:30Z</time>
      </trkpt>
      <trkpt lat="41.75364" lon="9.27756">
        <ele>284</ele>
        <time>2025-02-23T09:39:36Z</time>
      </trkpt>
      <trkpt lat="41.75367" lon="9.27751">
        <ele>284</ele>
        <time>2025-02-23T09:39:40Z</time>
      </trkpt>
      <trkpt lat="41.75371" lon="9.2775">
        <ele>295.6</ele>
        <time>2025-02-23T09:39:48Z</time>
      </trkpt>
      <trkpt lat="41.75374" lon="9.27748">
        <ele>296.5</ele>
        <time>2025-02-23T09:40:54Z</time>
      </trkpt>
      <trkpt lat="41.75378" lon="9.27746">
        <ele>297.3</ele>
      </trkpt>
      <trkpt lat="41.75383" lon="9.27744">
        <ele>298.6</ele>
      </trkpt>
      <trkpt lat="41.75389" lon="9.2774">
        <ele>299.4</ele>
        <time>2025-02-23T09:42:12Z</time>
      </trkpt>
      <trkpt lat="41.75395" lon="9.27738">
        <ele>299.4</ele>
        <time>2025-02-23T09:42:34Z</time>
      </trkpt>
      <trkpt lat="41.75404" lon="9.27736">
        <ele>299.7</ele>
        <time>2025-02-23T09:42:44Z</time>
      </trkpt>
      <trkpt lat="41.75409" lon="9.27733">
        <ele>299.3</ele>
        <time>2025-02-23T09:42:50Z</time>
      </trkpt>
      <trkpt lat="41.75412" lon="9.27736">
        <ele>301</ele>
        <time>2025-02-23T09:43:02Z</time>
      </trkpt>
      <trkpt lat="41.75417" lon="9.27738">
        <ele>302.4</ele>
      </trkpt>
      <trkpt lat="41.75424" lon="9.2774">
        <ele>292</ele>
        <time>2025-02-23T09:43:20Z</time>
      </trkpt>
      <trkpt lat="41.7543" lon="9.27739">
        <ele>304.2</ele>
        <time>2025-02-23T09:43:24Z</time>
      </trkpt>
      <trkpt lat="41.75433" lon="9.27737">
        <ele>304.3</ele>
        <time>2025-02-23T09:43:32Z</time>
      </trkpt>
      <trkpt lat="41.75439" lon="9.27738">
        <ele>305.2</ele>
        <time>2025-02-23T09:43:40Z</time>
      </trkpt>
      <trkpt lat="41.75444" lon="9.27735">
        <ele>305.9</ele>
        <time>2025-02-23T09:44:14Z</time>
      </trkpt>
      <trkpt lat="41.75444" lon="9.2773">
        <ele>294</ele>
        <time>2025-02-23T09:44:28Z</time>
      </trkpt>
      <trkpt lat="41.7544" lon="9.2772">
        <ele>304.5</ele>
        <time>2025-02-23T09:44:34Z</time>
      </trkpt>
      <trkpt lat="41.75438" lon="9.27716">
        <ele>304.8</ele>
      </trkpt>
      <trkpt lat="41.75437" lon="9.27712">
        <ele>304.8</ele>
        <time>2025-02-23T09:44:38Z</time>
      </trkpt>
      <trkpt lat="41.75436" lon="9.27708">
        <ele>304.9</ele>
      </trkpt>
      <trkpt lat="41.75434" lon="9.27703">
        <ele>305</ele>
        <time>2025-02-23T09:44:44Z</time>
      </trkpt>
      <trkpt lat="41.75434" lon="9.27701">
        <ele>305.2</ele>
      </trkpt>
      <trkpt lat="41.75433" lon="9.27698">
        <ele>305.4</ele>
      </trkpt>
      <trkpt lat="41.75432" lon="9.27693">
        <ele>305.5</ele>
        <time>2025-02-23T09:46:34Z</time>
      </trkpt>
      <trkpt lat="41.75435" lon="9.27693">
        <ele>306.5</ele>
      </trkpt>
      <trkpt lat="41.75437" lon="9.27693">
        <ele>307.3</ele>
      </trkpt>
      <trkpt lat="41.7544" lon="9.27694">
        <ele>308.2</ele>
      </trkpt>
      <trkpt lat="41.75442" lon="9.27695">
        <ele>308.9</ele>
      </trkpt>
      <trkpt lat="41.75443" lon="9.27697">
        <ele>309.2</ele>
        <time>2025-02-23T09:46:54Z</time>
      </trkpt>
      <trkpt lat="41.75446" lon="9.27696">
        <ele>310.3</ele>
      </trkpt>
      <trkpt lat="41.75448" lon="9.27694">
        <ele>311.4</ele>
        <time>2025-02-23T09:47:10Z</time>
      </trkpt>
      <trkpt lat="41.75452" lon="9.27692">
        <ele>312.9</ele>
        <time>2025-02-23T09:47:18Z</time>
      </trkpt>
      <trkpt lat="41.75456" lon="9.27693">
        <ele>314.3</ele>
        <time>2025-02-23T09:47:26Z</time>
      </trkpt>
      <trkpt lat="41.7546" lon="9.27695">
        <ele>315.4</ele>
      </trkpt>
      <trkpt lat="41.75461" lon="9.27703">
        <ele>315.3</ele>
      </trkpt>
      <trkpt lat="41.75465" lon="9.27708">
        <ele>316.8</ele>
        <time>2025-02-23T09:47:56Z</time>
      </trkpt>
      <trkpt lat="41.75468" lon="9.27714">
        <ele>318.2</ele>
        <time>2025-02-23T09:48:08Z</time>
      </trkpt>
      <trkpt lat="41.75472" lon="9.27712">
        <ele>319.9</ele>
      </trkpt>
    </trkseg>
  </trk>
  <trk>
    <name><![CDATA[Sentier de Mela descente 23/02/25]]></name>
    <desc><![CDATA[comment ...]]></desc>
    <extensions>
      <line xmlns="http://www.topografix.com/GPX/gpx_style/0/2">
        <color>0000FF</color>
        <opacity>1</opacity>
        <width>5</width>
          <extensions>
            <sens>1</sens>
          </extensions>
      </line>
    </extensions>
    <trkseg>
      <trkpt lat="41.75469" lon="9.27703">
        <ele>347</ele>
        <time>2025-02-23T08:54:51Z</time>
      </trkpt>
      <trkpt lat="41.75469" lon="9.27702">
        <ele>346</ele>
        <time>2025-02-23T08:54:53Z</time>
      </trkpt>
      <trkpt lat="41.75464" lon="9.27706">
        <ele>341</ele>
        <time>2025-02-23T08:55:19Z</time>
      </trkpt>
      <trkpt lat="41.75459" lon="9.27706">
        <ele>339</ele>
        <time>2025-02-23T08:55:29Z</time>
      </trkpt>
      <trkpt lat="41.75457" lon="9.277">
        <ele>338</ele>
        <time>2025-02-23T08:55:37Z</time>
      </trkpt>
      <trkpt lat="41.75452" lon="9.27694">
        <ele>337</ele>
        <time>2025-02-23T08:55:47Z</time>
      </trkpt>
      <trkpt lat="41.75442" lon="9.27696">
        <ele>335</ele>
        <time>2025-02-23T08:56:09Z</time>
      </trkpt>
      <trkpt lat="41.75435" lon="9.27697">
        <ele>332</ele>
        <time>2025-02-23T08:56:23Z</time>
      </trkpt>
      <trkpt lat="41.75433" lon="9.27699">
        <ele>331</ele>
        <time>2025-02-23T08:56:29Z</time>
      </trkpt>
      <trkpt lat="41.75434" lon="9.27704">
        <ele>330</ele>
        <time>2025-02-23T08:56:33Z</time>
      </trkpt>
      <trkpt lat="41.75436" lon="9.27711">
        <ele>329</ele>
        <time>2025-02-23T08:56:43Z</time>
      </trkpt>
      <trkpt lat="41.75438" lon="9.27706">
        <ele>328</ele>
        <time>2025-02-23T08:57:03Z</time>
      </trkpt>
      <trkpt lat="41.75436" lon="9.27693">
        <ele>326</ele>
        <time>2025-02-23T08:57:15Z</time>
      </trkpt>
      <trkpt lat="41.75438" lon="9.277">
        <ele>325</ele>
        <time>2025-02-23T08:57:25Z</time>
      </trkpt>
      <trkpt lat="41.7544" lon="9.27706">
        <ele>325</ele>
        <time>2025-02-23T08:57:29Z</time>
      </trkpt>
      <trkpt lat="41.75443" lon="9.27712">
        <ele>324</ele>
        <time>2025-02-23T08:57:33Z</time>
      </trkpt>
      <trkpt lat="41.75442" lon="9.27722">
        <ele>323</ele>
        <time>2025-02-23T08:57:47Z</time>
      </trkpt>
      <trkpt lat="41.75447" lon="9.27731">
        <ele>322</ele>
        <time>2025-02-23T08:57:51Z</time>
      </trkpt>
      <trkpt lat="41.75437" lon="9.27737">
        <ele>321</ele>
        <time>2025-02-23T08:58:41Z</time>
      </trkpt>
      <trkpt lat="41.75426" lon="9.27737">
        <ele>320</ele>
        <time>2025-02-23T08:58:55Z</time>
      </trkpt>
      <trkpt lat="41.7542" lon="9.27739">
        <ele>319</ele>
        <time>2025-02-23T08:59:15Z</time>
      </trkpt>
      <trkpt lat="41.75414" lon="9.2774">
        <ele>318</ele>
        <time>2025-02-23T09:00:09Z</time>
      </trkpt>
      <trkpt lat="41.75409" lon="9.27736">
        <ele>318</ele>
        <time>2025-02-23T09:00:33Z</time>
      </trkpt>
      <trkpt lat="41.75404" lon="9.27738">
        <ele>317</ele>
        <time>2025-02-23T09:00:49Z</time>
      </trkpt>
      <trkpt lat="41.75399" lon="9.27743">
        <ele>316</ele>
        <time>2025-02-23T09:01:03Z</time>
      </trkpt>
      <trkpt lat="41.75386" lon="9.27746">
        <ele>316</ele>
        <time>2025-02-23T09:01:15Z</time>
      </trkpt>
      <trkpt lat="41.75382" lon="9.27748">
        <ele>316</ele>
        <time>2025-02-23T09:01:27Z</time>
      </trkpt>
      <trkpt lat="41.75376" lon="9.27751">
        <ele>315</ele>
        <time>2025-02-23T09:01:39Z</time>
      </trkpt>
      <trkpt lat="41.75371" lon="9.27753">
        <ele>314</ele>
        <time>2025-02-23T09:02:01Z</time>
      </trkpt>
      <trkpt lat="41.75366" lon="9.27752">
        <ele>313</ele>
        <time>2025-02-23T09:02:11Z</time>
      </trkpt>
      <trkpt lat="41.75363" lon="9.27756">
        <ele>313</ele>
        <time>2025-02-23T09:02:19Z</time>
      </trkpt>
      <trkpt lat="41.7536" lon="9.2776">
        <ele>312</ele>
        <time>2025-02-23T09:02:27Z</time>
      </trkpt>
      <trkpt lat="41.75356" lon="9.27775">
        <ele>311</ele>
        <time>2025-02-23T09:02:39Z</time>
      </trkpt>
      <trkpt lat="41.75341" lon="9.27791">
        <ele>310</ele>
        <time>2025-02-23T09:03:03Z</time>
      </trkpt>
      <trkpt lat="41.75338" lon="9.27801">
        <ele>309</ele>
        <time>2025-02-23T09:03:15Z</time>
      </trkpt>
      <trkpt lat="41.75328" lon="9.2782">
        <ele>308</ele>
        <time>2025-02-23T09:03:29Z</time>
      </trkpt>
      <trkpt lat="41.75325" lon="9.27827">
        <ele>307</ele>
        <time>2025-02-23T09:04:07Z</time>
      </trkpt>
      <trkpt lat="41.75328" lon="9.27839">
        <ele>306</ele>
        <time>2025-02-23T09:04:37Z</time>
      </trkpt>
      <trkpt lat="41.7533" lon="9.27849">
        <ele>304</ele>
        <time>2025-02-23T09:06:23Z</time>
      </trkpt>
      <trkpt lat="41.75334" lon="9.27854">
        <ele>304</ele>
        <time>2025-02-23T09:06:39Z</time>
      </trkpt>
      <trkpt lat="41.75331" lon="9.27861">
        <ele>302</ele>
        <time>2025-02-23T09:07:03Z</time>
      </trkpt>
      <trkpt lat="41.75328" lon="9.27868">
        <ele>302</ele>
        <time>2025-02-23T09:07:15Z</time>
      </trkpt>
      <trkpt lat="41.75328" lon="9.27874">
        <ele>301</ele>
        <time>2025-02-23T09:07:21Z</time>
      </trkpt>
      <trkpt lat="41.75329" lon="9.27884">
        <ele>301</ele>
        <time>2025-02-23T09:08:26Z</time>
      </trkpt>
    </trkseg>
  </trk>
  <trk>
    <name><![CDATA[Sentier de Mela - montée 23/02/2025 (Suunto)]]></name>
    <extensions>
      <line xmlns="http://www.topografix.com/GPX/gpx_style/0/2">
        <color>ffff00</color>
        <opacity>1</opacity>
        <width>5</width>
          <extensions>
            <sens>1</sens>
          </extensions>
      </line>
    </extensions>
    <trkseg>
      <trkpt lat="41.75331" lon="9.27896">
        <ele>274.5</ele>
      </trkpt>
      <trkpt lat="41.75323" lon="9.27887">
        <ele>273</ele>
      </trkpt>
      <trkpt lat="41.75322" lon="9.27872">
        <ele>273.5</ele>
      </trkpt>
      <trkpt lat="41.75329" lon="9.27861">
        <ele>213</ele>
      </trkpt>
      <trkpt lat="41.75327" lon="9.27846">
        <ele>277.2</ele>
      </trkpt>
      <trkpt lat="41.75326" lon="9.2783">
        <ele>279.2</ele>
      </trkpt>
      <trkpt lat="41.75322" lon="9.27817">
        <ele>280.1</ele>
      </trkpt>
      <trkpt lat="41.75323" lon="9.2781">
        <ele>219</ele>
      </trkpt>
      <trkpt lat="41.75324" lon="9.27806">
        <ele>219</ele>
      </trkpt>
      <trkpt lat="41.75324" lon="9.27791">
        <ele>222</ele>
      </trkpt>
      <trkpt lat="41.75333" lon="9.27782">
        <ele>224</ele>
      </trkpt>
      <trkpt lat="41.75339" lon="9.2777">
        <ele>225</ele>
      </trkpt>
      <trkpt lat="41.75347" lon="9.27759">
        <ele>226</ele>
      </trkpt>
      <trkpt lat="41.75357" lon="9.27755">
        <ele>291.9</ele>
      </trkpt>
      <trkpt lat="41.75368" lon="9.27749">
        <ele>230</ele>
      </trkpt>
      <trkpt lat="41.75378" lon="9.27742">
        <ele>296.3</ele>
      </trkpt>
      <trkpt lat="41.75386" lon="9.27737">
        <ele>235</ele>
      </trkpt>
      <trkpt lat="41.75397" lon="9.27735">
        <ele>236</ele>
      </trkpt>
      <trkpt lat="41.75407" lon="9.27734">
        <ele>299.6</ele>
      </trkpt>
      <trkpt lat="41.75418" lon="9.27736">
        <ele>238</ele>
      </trkpt>
      <trkpt lat="41.75429" lon="9.27734">
        <ele>239</ele>
      </trkpt>
      <trkpt lat="41.7544" lon="9.2774">
        <ele>241</ele>
      </trkpt>
      <trkpt lat="41.75436" lon="9.27725">
        <ele>241</ele>
      </trkpt>
      <trkpt lat="41.75433" lon="9.27719">
        <ele>242</ele>
      </trkpt>
      <trkpt lat="41.75432" lon="9.27704">
        <ele>242</ele>
      </trkpt>
      <trkpt lat="41.7543" lon="9.27697">
        <ele>242</ele>
      </trkpt>
      <trkpt lat="41.75429" lon="9.27692">
        <ele>242</ele>
      </trkpt>
      <trkpt lat="41.75431" lon="9.27687">
        <ele>242</ele>
      </trkpt>
      <trkpt lat="41.75435" lon="9.27689">
        <ele>243</ele>
      </trkpt>
      <trkpt lat="41.75445" lon="9.27694">
        <ele>247</ele>
      </trkpt>
      <trkpt lat="41.75449" lon="9.27691">
        <ele>249</ele>
      </trkpt>
      <trkpt lat="41.75453" lon="9.2769">
        <ele>313.1</ele>
      </trkpt>
      <trkpt lat="41.75461" lon="9.27701">
        <ele>254</ele>
      </trkpt>
      <trkpt lat="41.75465" lon="9.27704">
        <ele>255</ele>
      </trkpt>
      <trkpt lat="41.75468" lon="9.27705">
        <ele>255</ele>
      </trkpt>
      <trkpt lat="41.75475" lon="9.27709">
        <ele>258</ele>
      </trkpt>
      <trkpt lat="41.75472" lon="9.27706">
        <ele>259</ele>
      </trkpt>
      <trkpt lat="41.75474" lon="9.27702">
        <ele>258</ele>
      </trkpt>
      <trkpt lat="41.75473" lon="9.277">
        <ele>258</ele>
      </trkpt>
    </trkseg>
  </trk>
  <trk>
    <name><![CDATA[Operata du 26/01/2025 - Trace sentier aval restauré]]></name>
    <extensions>
      <line xmlns="http://www.topografix.com/GPX/gpx_style/0/2">
        <color>00ff00</color>
        <opacity>1</opacity>
        <width>5</width>
          <extensions>
            <sens>1</sens>
          </extensions>
      </line>
    </extensions>
    <trkseg>
      <trkpt lat="41.75332" lon="9.27797">
        <ele>287.5</ele>
      </trkpt>
      <trkpt lat="41.75344" lon="9.27776">
        <ele>292.1</ele>
      </trkpt>
      <trkpt lat="41.75355" lon="9.2776">
        <ele>292.3</ele>
      </trkpt>
      <trkpt lat="41.7537" lon="9.27738">
        <ele>292.4</ele>
      </trkpt>
      <trkpt lat="41.75378" lon="9.27731">
        <ele>292.9</ele>
      </trkpt>
      <trkpt lat="41.75387" lon="9.2773">
        <ele>295.1</ele>
      </trkpt>
      <trkpt lat="41.7539" lon="9.2773">
        <ele>295.8</ele>
      </trkpt>
      <trkpt lat="41.75396" lon="9.27731">
        <ele>295</ele>
        <time>2025-01-26T10:17:58Z</time>
      </trkpt>
      <trkpt lat="41.75399" lon="9.27733">
        <ele>294</ele>
        <time>2025-01-26T10:18:09Z</time>
      </trkpt>
      <trkpt lat="41.75405" lon="9.27734">
        <ele>296</ele>
        <time>2025-01-26T10:18:20Z</time>
      </trkpt>
      <trkpt lat="41.7541" lon="9.2773">
        <ele>297</ele>
        <time>2025-01-26T10:18:32Z</time>
      </trkpt>
      <trkpt lat="41.75415" lon="9.27734">
        <ele>297</ele>
        <time>2025-01-26T10:18:35Z</time>
      </trkpt>
      <trkpt lat="41.75422" lon="9.2774">
        <ele>298</ele>
        <time>2025-01-26T10:18:52Z</time>
      </trkpt>
      <trkpt lat="41.75427" lon="9.2774">
        <ele>298</ele>
        <time>2025-01-26T10:18:59Z</time>
      </trkpt>
      <trkpt lat="41.75431" lon="9.27739">
        <ele>295</ele>
        <time>2025-01-26T10:19:11Z</time>
      </trkpt>
      <trkpt lat="41.75436" lon="9.27736">
        <ele>299</ele>
        <time>2025-01-26T10:19:41Z</time>
      </trkpt>
      <trkpt lat="41.75441" lon="9.27736">
        <ele>300</ele>
        <time>2025-01-26T10:19:53Z</time>
      </trkpt>
      <trkpt lat="41.75445" lon="9.27734">
        <ele>302</ele>
        <time>2025-01-26T10:20:18Z</time>
      </trkpt>
      <trkpt lat="41.75443" lon="9.27727">
        <ele>302</ele>
        <time>2025-01-26T10:20:21Z</time>
      </trkpt>
      <trkpt lat="41.75441" lon="9.27721">
        <ele>303</ele>
        <time>2025-01-26T10:20:33Z</time>
      </trkpt>
      <trkpt lat="41.75438" lon="9.27717">
        <ele>303</ele>
        <time>2025-01-26T10:20:37Z</time>
      </trkpt>
      <trkpt lat="41.75436" lon="9.27709">
        <ele>302</ele>
        <time>2025-01-26T10:20:44Z</time>
      </trkpt>
      <trkpt lat="41.75433" lon="9.27699">
        <ele>302</ele>
        <time>2025-01-26T10:20:54Z</time>
      </trkpt>
      <trkpt lat="41.75432" lon="9.27692">
        <ele>305</ele>
        <time>2025-01-26T10:21:06Z</time>
      </trkpt>
      <trkpt lat="41.75434" lon="9.27693">
        <ele>306.5</ele>
      </trkpt>
      <trkpt lat="41.75436" lon="9.27693">
        <ele>307.2</ele>
        <time>2025-01-26T10:21:18Z</time>
      </trkpt>
      <trkpt lat="41.75438" lon="9.27693">
        <ele>307.6</ele>
      </trkpt>
      <trkpt lat="41.75439" lon="9.27694">
        <ele>308.1</ele>
      </trkpt>
      <trkpt lat="41.75442" lon="9.27694">
        <ele>309</ele>
      </trkpt>
      <trkpt lat="41.75443" lon="9.27696">
        <ele>309.3</ele>
        <time>2025-01-26T10:21:23Z</time>
      </trkpt>
      <trkpt lat="41.75445" lon="9.27696">
        <ele>309.8</ele>
      </trkpt>
      <trkpt lat="41.75446" lon="9.27696">
        <ele>310.5</ele>
        <time>2025-01-26T10:21:27Z</time>
      </trkpt>
      <trkpt lat="41.75448" lon="9.27694">
        <ele>311.1</ele>
      </trkpt>
      <trkpt lat="41.75449" lon="9.27692">
        <ele>311.7</ele>
      </trkpt>
      <trkpt lat="41.75451" lon="9.27692">
        <ele>312.4</ele>
      </trkpt>
      <trkpt lat="41.75453" lon="9.27692">
        <ele>313.1</ele>
        <time>2025-01-26T10:21:34Z</time>
      </trkpt>
      <trkpt lat="41.75455" lon="9.27693">
        <ele>313.8</ele>
      </trkpt>
      <trkpt lat="41.75457" lon="9.27693">
        <ele>314.5</ele>
        <time>2025-01-26T10:21:39Z</time>
      </trkpt>
      <trkpt lat="41.75459" lon="9.27694">
        <ele>315.1</ele>
      </trkpt>
      <trkpt lat="41.7546" lon="9.27695">
        <ele>316</ele>
        <time>2025-01-26T10:21:47Z</time>
      </trkpt>
      <trkpt lat="41.7546" lon="9.27699">
        <ele>315.2</ele>
      </trkpt>
      <trkpt lat="41.75461" lon="9.27702">
        <ele>315.3</ele>
      </trkpt>
      <trkpt lat="41.75461" lon="9.27704">
        <ele>315.4</ele>
        <time>2025-01-26T10:21:52Z</time>
      </trkpt>
      <trkpt lat="41.75463" lon="9.27706">
        <ele>316.2</ele>
        <time>2025-01-26T10:21:58Z</time>
      </trkpt>
      <trkpt lat="41.75465" lon="9.27709">
        <ele>316.7</ele>
      </trkpt>
      <trkpt lat="41.75467" lon="9.27711">
        <ele>317.8</ele>
      </trkpt>
      <trkpt lat="41.75469" lon="9.27714">
        <ele>318.7</ele>
        <time>2025-01-26T10:22:17Z</time>
      </trkpt>
      <trkpt lat="41.75473" lon="9.2771">
        <ele>320.1</ele>
        <time>2025-01-26T10:22:30Z</time>
      </trkpt>
      <trkpt lat="41.75473" lon="9.27708">
        <ele>321</ele>
        <time>2025-01-26T10:28:19Z</time>
      </trkpt>
    </trkseg>
  </trk>
</gpx>